This is the latest recevied weather packets stored in our database for station/object KG5WBN. If no packets are shown the sender has not sent any weather packets the latest 10 day(s).
| Time | Temp. | Humidity | Pressure | Rain* | Wind** | Luminosity | Snow |
|---|---|---|---|---|---|---|---|
| 1777933932 | 25° C | 25% | 1014.2 hPa | 0 mm | - | 48 W/m² | - |
| 1777933629 | 25° C | 23% | 1014.2 hPa | 0 mm | - | 47 W/m² | - |
| 1777933326 | 25° C | 23% | 1014.2 hPa | 0 mm | - | 45 W/m² | - |
| 1777933023 | 25.56° C | 23% | 1014.6 hPa | 0 mm | - | 54 W/m² | - |
| 1777932720 | 25.56° C | 23% | 1014.6 hPa | 0 mm | - | 61 W/m² | - |
| 1777932416 | 26.67° C | 23% | 1014.2 hPa | 0 mm | - | 299 W/m² | - |
| 1777932114 | 26.67° C | 22% | 1014.6 hPa | 0 mm | - | 319 W/m² | - |
| 1777931810 | 26.11° C | 22% | 1014.6 hPa | 0 mm | - | 320 W/m² | - |
| 1777931508 | 26.11° C | 23% | 1014.2 hPa | 0 mm | - | 319 W/m² | - |
| 1777931203 | 26.11° C | 23% | 1014.6 hPa | 0 mm | - | 326 W/m² | - |
| 1777930900 | 26.11° C | 22% | 1014.2 hPa | 0 mm | - | 299 W/m² | - |
| 1777930597 | 26.11° C | 22% | 1014.6 hPa | 0 mm | - | 238 W/m² | - |
| 1777930293 | 26.11° C | 22% | 1014.6 hPa | 0 mm | - | 247 W/m² | - |
| 1777929990 | 26.11° C | 22% | 1014.2 hPa | 0 mm | - | 315 W/m² | - |
| 1777929687 | 26.67° C | 22% | 1014.6 hPa | 0 mm | - | 352 W/m² | - |
| 1777929385 | 27.22° C | 22% | 1014.6 hPa | 0 mm | - | 349 W/m² | - |
| 1777929081 | 26.67° C | 23% | 1014.2 hPa | 0 mm | - | 290 W/m² | - |
| 1777928779 | 27.78° C | 22% | 1014.6 hPa | 0 mm | - | 362 W/m² | - |
| 1777928474 | 27.22° C | 22% | 1014.6 hPa | 0 mm | - | 362 W/m² | - |
| 1777928173 | 27.78° C | 22% | 1014.6 hPa | 0 mm | - | 365 W/m² | - |
| 1777927870 | 26.67° C | 22% | 1014.6 hPa | 0 mm | - | 365 W/m² | - |
| 1777927568 | 27.78° C | 22% | 1014.9 hPa | 0 mm | - | 368 W/m² | - |
| 1777927267 | 27.22° C | 22% | 1014.9 hPa | 0 mm | - | 370 W/m² | - |
| 1777926965 | 26.67° C | 22% | 1014.9 hPa | 0 mm | - | 372 W/m² | - |
| 1777926662 | 26.11° C | 22% | 1015.2 hPa | 0 mm | - | 352 W/m² | - |
* Rain latest hour (hover to see other rain measurements)
** Current wind speed in m/s (hover to see current wind gust speed)